sensor_id;sensor_type;location;lat;lon;timestamp;temperature;humidity
2158;DHT22;41972;48.774;9.282;2024-02-14T00:00:28;3.00;99.90
2158;DHT22;41972;48.774;9.282;2024-02-14T00:02:54;2.90;99.90
2158;DHT22;41972;48.774;9.282;2024-02-14T00:05:19;2.90;99.90
2158;DHT22;41972;48.774;9.282;2024-02-14T00:07:45;2.90;99.90
2158;DHT22;41972;48.774;9.282;2024-02-14T00:10:10;2.90;99.90
2158;DHT22;41972;48.774;9.282;2024-02-14T00:12:36;3.00;99.90
2158;DHT22;41972;48.774;9.282;2024-02-14T00:15:03;3.00;99.90
2158;DHT22;41972;48.774;9.282;2024-02-14T00:17:29;3.00;99.90
2158;DHT22;41972;48.774;9.282;2024-02-14T00:19:54;3.20;99.90
2158;DHT22;41972;48.774;9.282;2024-02-14T00:22:21;3.20;99.90
2158;DHT22;41972;48.774;9.282;2024-02-14T00:24:46;3.20;99.90
2158;DHT22;41972;48.774;9.282;2024-02-14T00:27:11;3.20;99.90
2158;DHT22;41972;48.774;9.282;2024-02-14T00:29:39;3.30;99.90
2158;DHT22;41972;48.774;9.282;2024-02-14T00:32:05;3.30;99.90
2158;DHT22;41972;48.774;9.282;2024-02-14T00:34:30;3.30;99.90
2158;DHT22;41972;48.774;9.282;2024-02-14T00:36:56;3.10;99.90
2158;DHT22;41972;48.774;9.282;2024-02-14T00:39:21;3.10;99.90
2158;DHT22;41972;48.774;9.282;2024-02-14T00:41:47;3.10;99.90
2158;DHT22;41972;48.774;9.282;2024-02-14T00:44:13;3.00;99.90
2158;DHT22;41972;48.774;9.282;2024-02-14T00:46:38;2.80;99.90
2158;DHT22;41972;48.774;9.282;2024-02-14T00:49:04;2.80;99.90
2158;DHT22;41972;48.774;9.282;2024-02-14T00:51:29;2.90;99.90
2158;DHT22;41972;48.774;9.282;2024-02-14T00:53:55;3.00;99.90
2158;DHT22;41972;48.774;9.282;2024-02-14T00:56:20;2.90;99.90
2158;DHT22;41972;48.774;9.282;2024-02-14T00:58:46;3.00;99.90
2158;DHT22;41972;48.774;9.282;2024-02-14T01:01:11;3.00;99.90
2158;DHT22;41972;48.774;9.282;2024-02-14T01:03:37;3.10;99.90
2158;DHT22;41972;48.774;9.282;2024-02-14T01:06:02;3.30;99.90
2158;DHT22;41972;48.774;9.282;2024-02-14T01:08:28;3.40;99.90
2158;DHT22;41972;48.774;9.282;2024-02-14T01:10:54;3.40;99.90
2158;DHT22;41972;48.774;9.282;2024-02-14T01:13:19;3.50;99.90
2158;DHT22;41972;48.774;9.282;2024-02-14T01:15:45;3.60;99.90
2158;DHT22;41972;48.774;9.282;2024-02-14T01:18:10;3.70;99.90
2158;DHT22;41972;48.774;9.282;2024-02-14T01:20:36;3.80;99.90
2158;DHT22;41972;48.774;9.282;2024-02-14T01:23:02;3.90;99.90
2158;DHT22;41972;48.774;9.282;2024-02-14T01:25:28;4.00;99.90
2158;DHT22;41972;48.774;9.282;2024-02-14T01:27:54;3.90;99.90
2158;DHT22;41972;48.774;9.282;2024-02-14T01:30:19;4.00;99.90
2158;DHT22;41972;48.774;9.282;2024-02-14T01:32:45;3.80;99.90
2158;DHT22;41972;48.774;9.282;2024-02-14T01:35:10;3.60;99.90
2158;DHT22;41972;48.774;9.282;2024-02-14T01:37:36;3.60;99.90
2158;DHT22;41972;48.774;9.282;2024-02-14T01:40:01;3.90;99.90
2158;DHT22;41972;48.774;9.282;2024-02-14T01:42:27;4.00;99.90
2158;DHT22;41972;48.774;9.282;2024-02-14T01:44:53;4.20;99.90
2158;DHT22;41972;48.774;9.282;2024-02-14T01:47:20;4.30;99.90
2158;DHT22;41972;48.774;9.282;2024-02-14T01:49:46;4.30;99.90
2158;DHT22;41972;48.774;9.282;2024-02-14T01:52:12;4.40;99.90
2158;DHT22;41972;48.774;9.282;2024-02-14T01:54:37;4.50;99.90
2158;DHT22;41972;48.774;9.282;2024-02-14T01:57:03;4.50;99.90
2158;DHT22;41972;48.774;9.282;2024-02-14T01:59:30;4.70;99.90
2158;DHT22;41972;48.774;9.282;2024-02-14T02:01:55;4.80;99.90
2158;DHT22;41972;48.774;9.282;2024-02-14T02:04:21;4.70;99.90
2158;DHT22;41972;48.774;9.282;2024-02-14T02:06:46;4.80;99.90
2158;DHT22;41972;48.774;9.282;2024-02-14T02:09:12;4.90;99.90
2158;DHT22;41972;48.774;9.282;2024-02-14T02:11:48;4.90;99.90
2158;DHT22;41972;48.774;9.282;2024-02-14T02:14:14;4.80;99.90
2158;DHT22;41972;48.774;9.282;2024-02-14T02:16:39;4.80;99.90
2158;DHT22;41972;48.774;9.282;2024-02-14T02:19:05;4.90;99.90
2158;DHT22;41972;48.774;9.282;2024-02-14T02:21:33;5.00;99.90
2158;DHT22;41972;48.774;9.282;2024-02-14T02:24:00;4.90;99.90
2158;DHT22;41972;48.774;9.282;2024-02-14T02:26:26;4.90;99.90
2158;DHT22;41972;48.774;9.282;2024-02-14T02:28:51;5.00;99.90
2158;DHT22;41972;48.774;9.282;2024-02-14T02:31:17;5.10;99.90
2158;DHT22;41972;48.774;9.282;2024-02-14T02:33:42;5.10;99.90
2158;DHT22;41972;48.774;9.282;2024-02-14T02:36:08;5.20;99.90
2158;DHT22;41972;48.774;9.282;2024-02-14T02:38:35;5.20;99.90
2158;DHT22;41972;48.774;9.282;2024-02-14T02:41:02;5.10;99.90
2158;DHT22;41972;48.774;9.282;2024-02-14T02:43:28;5.10;99.90
2158;DHT22;41972;48.774;9.282;2024-02-14T02:45:54;5.20;99.90
2158;DHT22;41972;48.774;9.282;2024-02-14T02:48:19;5.30;99.90
2158;DHT22;41972;48.774;9.282;2024-02-14T02:50:48;4.90;99.90
2158;DHT22;41972;48.774;9.282;2024-02-14T02:53:15;4.90;99.90
2158;DHT22;41972;48.774;9.282;2024-02-14T02:55:40;5.00;99.90
2158;DHT22;41972;48.774;9.282;2024-02-14T02:58:06;5.10;99.90
2158;DHT22;41972;48.774;9.282;2024-02-14T03:00:32;5.00;99.90
2158;DHT22;41972;48.774;9.282;2024-02-14T03:02:59;5.00;99.90
2158;DHT22;41972;48.774;9.282;2024-02-14T03:05:25;4.90;99.90
2158;DHT22;41972;48.774;9.282;2024-02-14T03:07:50;4.80;99.90
2158;DHT22;41972;48.774;9.282;2024-02-14T03:10:18;4.70;99.90
2158;DHT22;41972;48.774;9.282;2024-02-14T03:12:47;4.60;99.90
2158;DHT22;41972;48.774;9.282;2024-02-14T03:15:13;4.50;99.90
2158;DHT22;41972;48.774;9.282;2024-02-14T03:17:38;4.70;99.90
2158;DHT22;41972;48.774;9.282;2024-02-14T03:20:04;4.70;99.90
2158;DHT22;41972;48.774;9.282;2024-02-14T03:22:35;4.80;99.90
2158;DHT22;41972;48.774;9.282;2024-02-14T03:25:01;5.00;99.90
2158;DHT22;41972;48.774;9.282;2024-02-14T03:27:26;4.90;99.90
2158;DHT22;41972;48.774;9.282;2024-02-14T03:29:52;4.70;99.90
2158;DHT22;41972;48.774;9.282;2024-02-14T03:32:17;4.50;99.90
2158;DHT22;41972;48.774;9.282;2024-02-14T03:34:43;4.40;99.90
2158;DHT22;41972;48.774;9.282;2024-02-14T03:37:10;4.30;99.90
2158;DHT22;41972;48.774;9.282;2024-02-14T03:39:35;4.30;99.90
2158;DHT22;41972;48.774;9.282;2024-02-14T03:42:02;4.30;99.90
2158;DHT22;41972;48.774;9.282;2024-02-14T03:44:32;4.20;99.90
2158;DHT22;41972;48.774;9.282;2024-02-14T03:46:59;4.30;99.90
2158;DHT22;41972;48.774;9.282;2024-02-14T03:49:25;4.40;99.90
2158;DHT22;41972;48.774;9.282;2024-02-14T03:51:51;4.50;99.90
2158;DHT22;41972;48.774;9.282;2024-02-14T03:54:20;4.40;99.90
2158;DHT22;41972;48.774;9.282;2024-02-14T03:56:45;4.40;99.90
2158;DHT22;41972;48.774;9.282;2024-02-14T03:59:11;4.50;99.90
2158;DHT22;41972;48.774;9.282;2024-02-14T04:01:36;4.50;99.90
2158;DHT22;41972;48.774;9.282;2024-02-14T04:04:02;4.50;99.90
2158;DHT22;41972;48.774;9.282;2024-02-14T04:06:28;4.40;99.90
2158;DHT22;41972;48.774;9.282;2024-02-14T04:08:57;4.30;99.90
2158;DHT22;41972;48.774;9.282;2024-02-14T04:11:22;4.40;99.90
2158;DHT22;41972;48.774;9.282;2024-02-14T04:13:48;4.50;99.90
2158;DHT22;41972;48.774;9.282;2024-02-14T04:16:14;4.60;99.90
2158;DHT22;41972;48.774;9.282;2024-02-14T04:18:39;4.60;99.90
2158;DHT22;41972;48.774;9.282;2024-02-14T04:21:07;4.60;99.90
2158;DHT22;41972;48.774;9.282;2024-02-14T04:23:33;4.60;99.90
2158;DHT22;41972;48.774;9.282;2024-02-14T04:25:58;4.80;99.90
2158;DHT22;41972;48.774;9.282;2024-02-14T04:28:24;5.00;99.90
2158;DHT22;41972;48.774;9.282;2024-02-14T04:30:49;5.00;99.90
2158;DHT22;41972;48.774;9.282;2024-02-14T04:33:15;4.90;99.90
2158;DHT22;41972;48.774;9.282;2024-02-14T04:35:41;4.90;99.90
2158;DHT22;41972;48.774;9.282;2024-02-14T04:38:06;5.00;99.90
2158;DHT22;41972;48.774;9.282;2024-02-14T04:40:34;5.10;99.90
2158;DHT22;41972;48.774;9.282;2024-02-14T04:42:59;5.10;99.90
2158;DHT22;41972;48.774;9.282;2024-02-14T04:45:25;5.10;99.90
2158;DHT22;41972;48.774;9.282;2024-02-14T04:47:51;5.10;99.90
2158;DHT22;41972;48.774;9.282;2024-02-14T04:50:16;5.20;99.90
2158;DHT22;41972;48.774;9.282;2024-02-14T04:52:42;5.30;99.90
2158;DHT22;41972;48.774;9.282;2024-02-14T04:55:07;5.30;99.90
2158;DHT22;41972;48.774;9.282;2024-02-14T04:57:34;5.30;99.90
2158;DHT22;41972;48.774;9.282;2024-02-14T05:00:01;5.30;99.90
2158;DHT22;41972;48.774;9.282;2024-02-14T05:02:26;5.30;99.90
2158;DHT22;41972;48.774;9.282;2024-02-14T05:04:53;5.40;99.90
2158;DHT22;41972;48.774;9.282;2024-02-14T05:07:19;5.40;99.90
2158;DHT22;41972;48.774;9.282;2024-02-14T05:09:45;5.40;99.90
2158;DHT22;41972;48.774;9.282;2024-02-14T05:12:12;5.50;99.90
2158;DHT22;41972;48.774;9.282;2024-02-14T05:14:38;5.50;99.90
2158;DHT22;41972;48.774;9.282;2024-02-14T05:17:03;5.50;99.90
2158;DHT22;41972;48.774;9.282;2024-02-14T05:19:30;5.30;99.90
2158;DHT22;41972;48.774;9.282;2024-02-14T05:21:55;5.30;99.90
2158;DHT22;41972;48.774;9.282;2024-02-14T05:24:21;5.20;99.90
2158;DHT22;41972;48.774;9.282;2024-02-14T05:26:46;5.20;99.90
2158;DHT22;41972;48.774;9.282;2024-02-14T05:29:12;5.30;99.90
2158;DHT22;41972;48.774;9.282;2024-02-14T05:31:45;5.50;99.90
2158;DHT22;41972;48.774;9.282;2024-02-14T05:34:10;5.40;99.90
2158;DHT22;41972;48.774;9.282;2024-02-14T05:36:36;5.40;99.90
2158;DHT22;41972;48.774;9.282;2024-02-14T05:39:03;5.50;99.90
2158;DHT22;41972;48.774;9.282;2024-02-14T05:41:29;5.40;99.90
2158;DHT22;41972;48.774;9.282;2024-02-14T05:43:55;5.50;99.90
2158;DHT22;41972;48.774;9.282;2024-02-14T05:46:22;5.60;99.90
2158;DHT22;41972;48.774;9.282;2024-02-14T05:48:47;5.60;99.90
2158;DHT22;41972;48.774;9.282;2024-02-14T05:51:13;5.60;99.90
2158;DHT22;41972;48.774;9.282;2024-02-14T05:53:39;5.70;99.90
2158;DHT22;41972;48.774;9.282;2024-02-14T05:56:04;5.70;99.90
2158;DHT22;41972;48.774;9.282;2024-02-14T05:58:30;5.70;99.90
2158;DHT22;41972;48.774;9.282;2024-02-14T06:00:55;5.80;99.90
2158;DHT22;41972;48.774;9.282;2024-02-14T06:03:21;5.90;99.90
2158;DHT22;41972;48.774;9.282;2024-02-14T06:05:47;5.90;99.90
2158;DHT22;41972;48.774;9.282;2024-02-14T06:08:15;5.90;99.90
2158;DHT22;41972;48.774;9.282;2024-02-14T06:10:40;6.00;99.90
2158;DHT22;41972;48.774;9.282;2024-02-14T06:13:06;6.00;99.90
2158;DHT22;41972;48.774;9.282;2024-02-14T06:15:31;6.00;99.90
2158;DHT22;41972;48.774;9.282;2024-02-14T06:17:57;5.70;99.90
2158;DHT22;41972;48.774;9.282;2024-02-14T06:20:22;5.50;99.90
2158;DHT22;41972;48.774;9.282;2024-02-14T06:22:48;5.50;99.90
2158;DHT22;41972;48.774;9.282;2024-02-14T06:25:13;5.30;99.90
2158;DHT22;41972;48.774;9.282;2024-02-14T06:27:39;5.50;99.90
2158;DHT22;41972;48.774;9.282;2024-02-14T06:30:05;5.10;99.90
2158;DHT22;41972;48.774;9.282;2024-02-14T06:32:30;5.10;99.90
2158;DHT22;41972;48.774;9.282;2024-02-14T06:34:56;5.10;99.90
2158;DHT22;41972;48.774;9.282;2024-02-14T06:37:21;5.10;99.90
2158;DHT22;41972;48.774;9.282;2024-02-14T06:39:47;5.20;99.90
2158;DHT22;41972;48.774;9.282;2024-02-14T06:42:14;5.10;99.90
2158;DHT22;41972;48.774;9.282;2024-02-14T06:44:40;5.20;99.90
2158;DHT22;41972;48.774;9.282;2024-02-14T06:47:05;5.20;99.90
2158;DHT22;41972;48.774;9.282;2024-02-14T06:49:31;5.10;99.90
2158;DHT22;41972;48.774;9.282;2024-02-14T06:51:56;5.20;99.90
2158;DHT22;41972;48.774;9.282;2024-02-14T06:54:22;5.30;99.90
2158;DHT22;41972;48.774;9.282;2024-02-14T06:56:47;5.30;99.90
2158;DHT22;41972;48.774;9.282;2024-02-14T06:59:13;5.20;99.90
2158;DHT22;41972;48.774;9.282;2024-02-14T07:01:39;5.30;99.90
2158;DHT22;41972;48.774;9.282;2024-02-14T07:04:04;5.30;99.90
2158;DHT22;41972;48.774;9.282;2024-02-14T07:06:30;5.30;99.90
2158;DHT22;41972;48.774;9.282;2024-02-14T07:08:55;5.30;99.90
2158;DHT22;41972;48.774;9.282;2024-02-14T07:11:21;5.40;99.90
2158;DHT22;41972;48.774;9.282;2024-02-14T07:13:47;5.50;99.90
2158;DHT22;41972;48.774;9.282;2024-02-14T07:16:12;5.60;99.90
2158;DHT22;41972;48.774;9.282;2024-02-14T07:18:38;5.70;99.90
2158;DHT22;41972;48.774;9.282;2024-02-14T07:21:03;5.60;99.90
2158;DHT22;41972;48.774;9.282;2024-02-14T07:23:31;5.70;99.90
2158;DHT22;41972;48.774;9.282;2024-02-14T07:25:56;5.80;99.90
2158;DHT22;41972;48.774;9.282;2024-02-14T07:28:22;5.80;99.90
2158;DHT22;41972;48.774;9.282;2024-02-14T07:30:47;5.60;99.90
2158;DHT22;41972;48.774;9.282;2024-02-14T07:33:13;5.80;99.90
2158;DHT22;41972;48.774;9.282;2024-02-14T07:35:38;6.00;99.90
2158;DHT22;41972;48.774;9.282;2024-02-14T07:38:04;5.90;99.90
2158;DHT22;41972;48.774;9.282;2024-02-14T07:40:29;6.10;99.90
2158;DHT22;41972;48.774;9.282;2024-02-14T07:42:57;5.90;99.90
2158;DHT22;41972;48.774;9.282;2024-02-14T07:45:22;6.00;99.90
2158;DHT22;41972;48.774;9.282;2024-02-14T07:47:49;6.00;99.90
2158;DHT22;41972;48.774;9.282;2024-02-14T07:50:15;6.30;99.90
2158;DHT22;41972;48.774;9.282;2024-02-14T07:52:42;6.30;99.90
2158;DHT22;41972;48.774;9.282;2024-02-14T07:55:09;6.30;99.90
2158;DHT22;41972;48.774;9.282;2024-02-14T07:57:37;6.40;99.90
2158;DHT22;41972;48.774;9.282;2024-02-14T08:00:04;6.40;99.90
2158;DHT22;41972;48.774;9.282;2024-02-14T08:02:30;6.40;99.90
2158;DHT22;41972;48.774;9.282;2024-02-14T08:04:56;6.50;99.90
2158;DHT22;41972;48.774;9.282;2024-02-14T08:07:21;6.50;99.90
2158;DHT22;41972;48.774;9.282;2024-02-14T08:09:46;6.30;99.90
2158;DHT22;41972;48.774;9.282;2024-02-14T08:12:12;6.30;99.90
2158;DHT22;41972;48.774;9.282;2024-02-14T08:14:38;6.30;99.90
2158;DHT22;41972;48.774;9.282;2024-02-14T08:17:04;6.40;99.90
2158;DHT22;41972;48.774;9.282;2024-02-14T08:19:29;6.40;99.90
2158;DHT22;41972;48.774;9.282;2024-02-14T08:21:55;6.40;99.90
2158;DHT22;41972;48.774;9.282;2024-02-14T08:24:25;6.50;99.90
2158;DHT22;41972;48.774;9.282;2024-02-14T08:26:51;6.80;99.90
2158;DHT22;41972;48.774;9.282;2024-02-14T08:29:16;6.80;99.90
2158;DHT22;41972;48.774;9.282;2024-02-14T08:31:42;6.70;99.90
2158;DHT22;41972;48.774;9.282;2024-02-14T08:34:07;6.70;99.90
2158;DHT22;41972;48.774;9.282;2024-02-14T08:36:35;6.60;99.90
2158;DHT22;41972;48.774;9.282;2024-02-14T08:39:06;6.70;99.90
2158;DHT22;41972;48.774;9.282;2024-02-14T08:41:32;6.90;99.90
2158;DHT22;41972;48.774;9.282;2024-02-14T08:43:57;7.00;99.90
2158;DHT22;41972;48.774;9.282;2024-02-14T08:46:23;6.80;99.90
2158;DHT22;41972;48.774;9.282;2024-02-14T08:48:50;6.80;99.90
2158;DHT22;41972;48.774;9.282;2024-02-14T08:51:16;6.90;99.90
2158;DHT22;41972;48.774;9.282;2024-02-14T08:53:45;6.90;99.90
2158;DHT22;41972;48.774;9.282;2024-02-14T08:56:11;7.10;99.90
2158;DHT22;41972;48.774;9.282;2024-02-14T08:58:37;7.30;99.90
2158;DHT22;41972;48.774;9.282;2024-02-14T09:01:02;7.40;99.90
2158;DHT22;41972;48.774;9.282;2024-02-14T09:03:28;7.30;99.90
2158;DHT22;41972;48.774;9.282;2024-02-14T09:05:55;7.20;99.90
2158;DHT22;41972;48.774;9.282;2024-02-14T09:08:22;7.20;99.90
2158;DHT22;41972;48.774;9.282;2024-02-14T09:10:52;7.50;99.90
2158;DHT22;41972;48.774;9.282;2024-02-14T09:13:17;7.70;99.90
2158;DHT22;41972;48.774;9.282;2024-02-14T09:15:43;8.00;99.90
2158;DHT22;41972;48.774;9.282;2024-02-14T09:18:09;8.10;99.90
2158;DHT22;41972;48.774;9.282;2024-02-14T09:20:35;8.40;99.90
2158;DHT22;41972;48.774;9.282;2024-02-14T09:23:00;8.30;99.90
2158;DHT22;41972;48.774;9.282;2024-02-14T09:25:26;7.90;99.90
2158;DHT22;41972;48.774;9.282;2024-02-14T09:27:51;7.90;99.90
2158;DHT22;41972;48.774;9.282;2024-02-14T09:30:18;7.80;99.90
2158;DHT22;41972;48.774;9.282;2024-02-14T09:32:44;8.10;99.90
2158;DHT22;41972;48.774;9.282;2024-02-14T09:35:10;8.30;99.90
2158;DHT22;41972;48.774;9.282;2024-02-14T09:37:36;8.40;99.90
2158;DHT22;41972;48.774;9.282;2024-02-14T09:40:04;8.20;99.90
2158;DHT22;41972;48.774;9.282;2024-02-14T09:42:44;8.30;99.90
2158;DHT22;41972;48.774;9.282;2024-02-14T09:45:11;8.70;99.90
2158;DHT22;41972;48.774;9.282;2024-02-14T09:47:38;9.20;99.90
2158;DHT22;41972;48.774;9.282;2024-02-14T09:50:06;9.80;99.90
2158;DHT22;41972;48.774;9.282;2024-02-14T09:52:33;10.00;99.90
2158;DHT22;41972;48.774;9.282;2024-02-14T09:54:59;10.30;99.90
2158;DHT22;41972;48.774;9.282;2024-02-14T09:57:26;10.80;99.90
2158;DHT22;41972;48.774;9.282;2024-02-14T09:59:54;11.10;99.90
2158;DHT22;41972;48.774;9.282;2024-02-14T10:02:19;11.50;99.90
2158;DHT22;41972;48.774;9.282;2024-02-14T10:04:45;11.70;99.90
2158;DHT22;41972;48.774;9.282;2024-02-14T10:07:11;12.00;99.90
2158;DHT22;41972;48.774;9.282;2024-02-14T10:09:43;11.80;99.90
2158;DHT22;41972;48.774;9.282;2024-02-14T10:12:09;12.30;99.90
2158;DHT22;41972;48.774;9.282;2024-02-14T10:14:35;12.70;99.90
2158;DHT22;41972;48.774;9.282;2024-02-14T10:17:03;13.20;99.90
2158;DHT22;41972;48.774;9.282;2024-02-14T10:19:28;13.90;99.90
2158;DHT22;41972;48.774;9.282;2024-02-14T10:21:58;14.90;99.90
2158;DHT22;41972;48.774;9.282;2024-02-14T10:24:28;14.60;99.90
2158;DHT22;41972;48.774;9.282;2024-02-14T10:26:54;15.10;99.90
2158;DHT22;41972;48.774;9.282;2024-02-14T10:29:25;15.20;99.90
2158;DHT22;41972;48.774;9.282;2024-02-14T10:31:52;16.40;99.90
2158;DHT22;41972;48.774;9.282;2024-02-14T10:34:18;15.30;99.90
2158;DHT22;41972;48.774;9.282;2024-02-14T10:36:46;13.80;99.90
2158;DHT22;41972;48.774;9.282;2024-02-14T10:39:13;12.60;99.90
2158;DHT22;41972;48.774;9.282;2024-02-14T10:41:40;12.80;99.90
2158;DHT22;41972;48.774;9.282;2024-02-14T10:44:06;14.90;99.90
2158;DHT22;41972;48.774;9.282;2024-02-14T10:46:33;15.10;99.90
2158;DHT22;41972;48.774;9.282;2024-02-14T10:49:05;15.50;99.90
2158;DHT22;41972;48.774;9.282;2024-02-14T10:51:33;15.50;99.90
2158;DHT22;41972;48.774;9.282;2024-02-14T10:54:03;15.50;99.90
2158;DHT22;41972;48.774;9.282;2024-02-14T10:56:31;15.80;99.90
2158;DHT22;41972;48.774;9.282;2024-02-14T10:58:57;14.30;99.90
2158;DHT22;41972;48.774;9.282;2024-02-14T11:01:25;15.00;99.90
2158;DHT22;41972;48.774;9.282;2024-02-14T11:03:53;13.80;99.90
2158;DHT22;41972;48.774;9.282;2024-02-14T11:06:18;13.00;99.90
2158;DHT22;41972;48.774;9.282;2024-02-14T11:09:03;13.60;99.90
2158;DHT22;41972;48.774;9.282;2024-02-14T11:11:36;14.00;99.90
2158;DHT22;41972;48.774;9.282;2024-02-14T11:14:03;13.80;99.90
2158;DHT22;41972;48.774;9.282;2024-02-14T11:16:31;13.80;99.90
2158;DHT22;41972;48.774;9.282;2024-02-14T11:19:09;14.10;99.90
2158;DHT22;41972;48.774;9.282;2024-02-14T11:21:47;13.00;99.90
2158;DHT22;41972;48.774;9.282;2024-02-14T11:24:15;12.20;99.90
2158;DHT22;41972;48.774;9.282;2024-02-14T11:26:50;12.40;99.90
2158;DHT22;41972;48.774;9.282;2024-02-14T11:29:20;12.50;99.90
2158;DHT22;41972;48.774;9.282;2024-02-14T11:31:45;12.50;99.90
2158;DHT22;41972;48.774;9.282;2024-02-14T11:34:14;12.30;99.90
2158;DHT22;41972;48.774;9.282;2024-02-14T11:36:45;12.20;99.90
2158;DHT22;41972;48.774;9.282;2024-02-14T11:39:11;12.10;99.90
2158;DHT22;41972;48.774;9.282;2024-02-14T11:41:39;12.10;99.90
2158;DHT22;41972;48.774;9.282;2024-02-14T11:44:08;12.40;99.90
2158;DHT22;41972;48.774;9.282;2024-02-14T11:46:35;12.60;99.90
2158;DHT22;41972;48.774;9.282;2024-02-14T11:49:02;12.30;99.90
2158;DHT22;41972;48.774;9.282;2024-02-14T11:51:29;12.40;99.90
2158;DHT22;41972;48.774;9.282;2024-02-14T11:53:56;12.40;99.90
2158;DHT22;41972;48.774;9.282;2024-02-14T11:56:22;12.40;99.90
2158;DHT22;41972;48.774;9.282;2024-02-14T11:58:48;12.30;99.90
2158;DHT22;41972;48.774;9.282;2024-02-14T12:01:17;12.30;99.90
2158;DHT22;41972;48.774;9.282;2024-02-14T12:03:43;12.30;99.90
2158;DHT22;41972;48.774;9.282;2024-02-14T12:06:09;12.40;99.90
2158;DHT22;41972;48.774;9.282;2024-02-14T12:08:36;12.20;99.90
2158;DHT22;41972;48.774;9.282;2024-02-14T12:11:02;12.70;99.90
2158;DHT22;41972;48.774;9.282;2024-02-14T12:13:28;12.60;99.90
2158;DHT22;41972;48.774;9.282;2024-02-14T12:15:58;12.70;99.90
2158;DHT22;41972;48.774;9.282;2024-02-14T12:18:23;12.70;99.90
2158;DHT22;41972;48.774;9.282;2024-02-14T12:20:49;12.90;99.90
2158;DHT22;41972;48.774;9.282;2024-02-14T12:23:17;12.90;99.90
2158;DHT22;41972;48.774;9.282;2024-02-14T12:25:47;12.90;99.90
2158;DHT22;41972;48.774;9.282;2024-02-14T12:28:19;13.00;99.90
2158;DHT22;41972;48.774;9.282;2024-02-14T12:30:47;13.10;99.90
2158;DHT22;41972;48.774;9.282;2024-02-14T12:33:16;13.70;99.90
2158;DHT22;41972;48.774;9.282;2024-02-14T12:35:46;13.70;99.90
2158;DHT22;41972;48.774;9.282;2024-02-14T12:38:13;14.20;99.90
2158;DHT22;41972;48.774;9.282;2024-02-14T12:40:39;13.50;99.90
2158;DHT22;41972;48.774;9.282;2024-02-14T12:43:10;13.50;99.90
2158;DHT22;41972;48.774;9.282;2024-02-14T12:45:36;13.50;99.90
2158;DHT22;41972;48.774;9.282;2024-02-14T12:48:02;13.60;99.90
2158;DHT22;41972;48.774;9.282;2024-02-14T12:50:28;13.70;99.90
2158;DHT22;41972;48.774;9.282;2024-02-14T12:52:53;14.20;99.90
2158;DHT22;41972;48.774;9.282;2024-02-14T12:55:19;14.10;99.90
2158;DHT22;41972;48.774;9.282;2024-02-14T12:57:45;13.90;99.90
2158;DHT22;41972;48.774;9.282;2024-02-14T13:00:11;14.10;99.90
2158;DHT22;41972;48.774;9.282;2024-02-14T13:02:37;13.80;99.90
2158;DHT22;41972;48.774;9.282;2024-02-14T13:05:05;14.00;99.90
2158;DHT22;41972;48.774;9.282;2024-02-14T13:07:32;14.00;99.90
2158;DHT22;41972;48.774;9.282;2024-02-14T13:09:58;14.10;99.90
2158;DHT22;41972;48.774;9.282;2024-02-14T13:12:23;14.30;99.90
2158;DHT22;41972;48.774;9.282;2024-02-14T13:14:49;14.10;99.90
2158;DHT22;41972;48.774;9.282;2024-02-14T13:17:14;14.10;99.90
2158;DHT22;41972;48.774;9.282;2024-02-14T13:19:40;13.80;99.90
2158;DHT22;41972;48.774;9.282;2024-02-14T13:22:08;13.50;99.90
2158;DHT22;41972;48.774;9.282;2024-02-14T13:24:34;13.70;99.90
2158;DHT22;41972;48.774;9.282;2024-02-14T13:27:00;13.80;99.90
2158;DHT22;41972;48.774;9.282;2024-02-14T13:29:25;13.90;99.90
2158;DHT22;41972;48.774;9.282;2024-02-14T13:31:51;13.60;99.90
2158;DHT22;41972;48.774;9.282;2024-02-14T13:34:17;13.80;99.90
2158;DHT22;41972;48.774;9.282;2024-02-14T13:36:46;13.90;99.90
2158;DHT22;41972;48.774;9.282;2024-02-14T13:39:12;13.90;99.90
2158;DHT22;41972;48.774;9.282;2024-02-14T13:41:42;13.60;99.90
2158;DHT22;41972;48.774;9.282;2024-02-14T13:44:09;13.80;99.90
2158;DHT22;41972;48.774;9.282;2024-02-14T13:46:36;14.00;99.90
2158;DHT22;41972;48.774;9.282;2024-02-14T13:49:03;14.30;99.90
2158;DHT22;41972;48.774;9.282;2024-02-14T13:51:28;14.40;99.90
2158;DHT22;41972;48.774;9.282;2024-02-14T13:53:54;14.20;99.90
2158;DHT22;41972;48.774;9.282;2024-02-14T13:56:21;13.90;99.90
2158;DHT22;41972;48.774;9.282;2024-02-14T13:58:48;13.70;99.90
2158;DHT22;41972;48.774;9.282;2024-02-14T14:01:15;13.90;99.90
2158;DHT22;41972;48.774;9.282;2024-02-14T14:03:40;14.10;99.90
2158;DHT22;41972;48.774;9.282;2024-02-14T14:06:07;14.30;99.90
2158;DHT22;41972;48.774;9.282;2024-02-14T14:08:34;14.20;99.90
2158;DHT22;41972;48.774;9.282;2024-02-14T14:11:04;14.30;99.90
2158;DHT22;41972;48.774;9.282;2024-02-14T14:13:29;14.00;99.90
2158;DHT22;41972;48.774;9.282;2024-02-14T14:15:58;14.40;99.90
2158;DHT22;41972;48.774;9.282;2024-02-14T14:18:24;14.40;99.90
2158;DHT22;41972;48.774;9.282;2024-02-14T14:20:50;14.60;99.90
2158;DHT22;41972;48.774;9.282;2024-02-14T14:23:15;14.40;99.90
2158;DHT22;41972;48.774;9.282;2024-02-14T14:25:41;14.60;99.90
2158;DHT22;41972;48.774;9.282;2024-02-14T14:28:07;14.50;99.90
2158;DHT22;41972;48.774;9.282;2024-02-14T14:30:34;14.10;99.90
2158;DHT22;41972;48.774;9.282;2024-02-14T14:32:59;14.10;99.90
2158;DHT22;41972;48.774;9.282;2024-02-14T14:35:25;13.90;99.90
2158;DHT22;41972;48.774;9.282;2024-02-14T14:37:50;13.90;99.90
2158;DHT22;41972;48.774;9.282;2024-02-14T14:40:17;14.10;99.90
2158;DHT22;41972;48.774;9.282;2024-02-14T14:42:42;14.30;99.90
2158;DHT22;41972;48.774;9.282;2024-02-14T14:45:08;14.00;99.90
2158;DHT22;41972;48.774;9.282;2024-02-14T14:47:34;14.20;99.90
2158;DHT22;41972;48.774;9.282;2024-02-14T14:50:00;14.10;99.90
2158;DHT22;41972;48.774;9.282;2024-02-14T14:52:25;14.20;99.90
2158;DHT22;41972;48.774;9.282;2024-02-14T14:54:51;14.10;99.90
2158;DHT22;41972;48.774;9.282;2024-02-14T14:57:16;14.00;99.90
2158;DHT22;41972;48.774;9.282;2024-02-14T14:59:42;14.00;99.90
2158;DHT22;41972;48.774;9.282;2024-02-14T15:02:08;14.00;99.90
2158;DHT22;41972;48.774;9.282;2024-02-14T15:04:34;14.00;99.90
2158;DHT22;41972;48.774;9.282;2024-02-14T15:07:05;14.10;99.90
2158;DHT22;41972;48.774;9.282;2024-02-14T15:09:30;14.00;99.90
2158;DHT22;41972;48.774;9.282;2024-02-14T15:11:56;14.10;99.90
2158;DHT22;41972;48.774;9.282;2024-02-14T15:14:22;13.90;99.90
2158;DHT22;41972;48.774;9.282;2024-02-14T15:16:48;13.80;99.90
2158;DHT22;41972;48.774;9.282;2024-02-14T15:19:14;13.80;99.90
2158;DHT22;41972;48.774;9.282;2024-02-14T15:21:39;13.70;99.90
2158;DHT22;41972;48.774;9.282;2024-02-14T15:24:06;13.50;99.90
2158;DHT22;41972;48.774;9.282;2024-02-14T15:26:32;13.40;99.90
2158;DHT22;41972;48.774;9.282;2024-02-14T15:29:17;13.40;99.90
2158;DHT22;41972;48.774;9.282;2024-02-14T15:32:02;13.50;99.90
2158;DHT22;41972;48.774;9.282;2024-02-14T15:34:46;13.30;99.90
2158;DHT22;41972;48.774;9.282;2024-02-14T15:37:12;13.40;99.90
2158;DHT22;41972;48.774;9.282;2024-02-14T15:39:38;13.60;99.90
2158;DHT22;41972;48.774;9.282;2024-02-14T15:42:07;13.50;99.90
2158;DHT22;41972;48.774;9.282;2024-02-14T15:44:36;13.60;99.90
2158;DHT22;41972;48.774;9.282;2024-02-14T15:47:01;13.80;99.90
2158;DHT22;41972;48.774;9.282;2024-02-14T15:49:27;14.00;99.90